sensor_id;sensor_type;location;lat;lon;timestamp;pressure;altitude;pressure_sealevel;temperature;humidity
64853;BME280;56050;55.558;-4.644;2023-07-13T00:01:27;101096.97;;;14.88;71.13
64853;BME280;56050;55.558;-4.644;2023-07-13T00:03:53;101100.00;;;14.94;70.90
64853;BME280;56050;55.558;-4.644;2023-07-13T00:06:19;101093.75;;;14.97;70.72
64853;BME280;56050;55.558;-4.644;2023-07-13T00:08:45;101099.13;;;15.00;71.08
64853;BME280;56050;55.558;-4.644;2023-07-13T00:11:13;101097.16;;;15.04;70.74
64853;BME280;56050;55.558;-4.644;2023-07-13T00:13:39;101093.63;;;15.07;70.64
64853;BME280;56050;55.558;-4.644;2023-07-13T00:16:06;101096.28;;;15.11;70.47
64853;BME280;56050;55.558;-4.644;2023-07-13T00:18:31;101090.41;;;15.16;70.30
64853;BME280;56050;55.558;-4.644;2023-07-13T00:20:57;101093.50;;;15.18;70.54
64853;BME280;56050;55.558;-4.644;2023-07-13T00:23:34;101094.97;;;15.22;69.91
64853;BME280;56050;55.558;-4.644;2023-07-13T00:26:04;101096.50;;;15.23;70.10
64853;BME280;56050;55.558;-4.644;2023-07-13T00:28:30;101094.94;;;15.26;69.93
64853;BME280;56050;55.558;-4.644;2023-07-13T00:30:56;101098.34;;;15.30;70.23
64853;BME280;56050;55.558;-4.644;2023-07-13T00:33:21;101099.84;;;15.35;70.20
64853;BME280;56050;55.558;-4.644;2023-07-13T00:35:48;101096.31;;;15.38;70.11
64853;BME280;56050;55.558;-4.644;2023-07-13T00:38:14;101093.97;;;15.40;69.94
64853;BME280;56050;55.558;-4.644;2023-07-13T00:40:39;101097.44;;;15.40;69.61
64853;BME280;56050;55.558;-4.644;2023-07-13T00:43:16;101097.09;;;15.38;69.65
64853;BME280;56050;55.558;-4.644;2023-07-13T00:48:07;101093.59;;;15.38;69.26
64853;BME280;56050;55.558;-4.644;2023-07-13T00:50:33;101092.41;;;15.39;69.41
64853;BME280;56050;55.558;-4.644;2023-07-13T00:52:59;101092.41;;;15.39;69.32
64853;BME280;56050;55.558;-4.644;2023-07-13T00:55:24;101093.53;;;15.41;69.22
64853;BME280;56050;55.558;-4.644;2023-07-13T00:57:50;101096.22;;;15.45;69.41
64853;BME280;56050;55.558;-4.644;2023-07-13T01:00:15;101095.03;;;15.46;68.80
64853;BME280;56050;55.558;-4.644;2023-07-13T01:02:44;101088.84;;;15.45;69.02
64853;BME280;56050;55.558;-4.644;2023-07-13T01:05:17;101086.91;;;15.46;68.70
64853;BME280;56050;55.558;-4.644;2023-07-13T01:07:43;101085.72;;;15.47;68.46
64853;BME280;56050;55.558;-4.644;2023-07-13T01:10:11;101090.78;;;15.45;68.90
64853;BME280;56050;55.558;-4.644;2023-07-13T01:12:37;101086.13;;;15.45;68.88
64853;BME280;56050;55.558;-4.644;2023-07-13T01:15:03;101083.00;;;15.47;68.72
64853;BME280;56050;55.558;-4.644;2023-07-13T01:17:30;101088.06;;;15.48;68.54
64853;BME280;56050;55.558;-4.644;2023-07-13T01:19:56;101084.91;;;15.50;68.28
64853;BME280;56050;55.558;-4.644;2023-07-13T01:22:22;101087.63;;;15.50;68.30
64853;BME280;56050;55.558;-4.644;2023-07-13T01:24:53;101080.25;;;15.50;68.28
64853;BME280;56050;55.558;-4.644;2023-07-13T01:27:24;101082.56;;;15.52;68.59
64853;BME280;56050;55.558;-4.644;2023-07-13T01:29:51;101080.91;;;15.58;68.39
64853;BME280;56050;55.558;-4.644;2023-07-13T01:32:20;101081.22;;;15.63;68.55
64853;BME280;56050;55.558;-4.644;2023-07-13T01:34:46;101085.78;;;15.70;68.61
64853;BME280;56050;55.558;-4.644;2023-07-13T01:37:12;101087.69;;;15.73;68.55
64853;BME280;56050;55.558;-4.644;2023-07-13T01:39:38;101090.75;;;15.75;68.37
64853;BME280;56050;55.558;-4.644;2023-07-13T01:42:03;101084.13;;;15.76;68.45
64853;BME280;56050;55.558;-4.644;2023-07-13T01:44:29;101088.78;;;15.75;68.34
64853;BME280;56050;55.558;-4.644;2023-07-13T01:46:54;101096.94;;;15.75;68.13
64853;BME280;56050;55.558;-4.644;2023-07-13T01:49:20;101090.41;;;15.73;68.31
64853;BME280;56050;55.558;-4.644;2023-07-13T01:51:45;101093.94;;;15.70;68.08
64853;BME280;56050;55.558;-4.644;2023-07-13T01:54:11;101092.47;;;15.65;68.32
64853;BME280;56050;55.558;-4.644;2023-07-13T01:56:36;101083.94;;;15.63;68.50
64853;BME280;56050;55.558;-4.644;2023-07-13T01:59:02;101100.69;;;15.58;68.54
64853;BME280;56050;55.558;-4.644;2023-07-13T02:01:27;101096.09;;;15.55;68.29
64853;BME280;56050;55.558;-4.644;2023-07-13T02:03:53;101094.59;;;15.51;68.55
64853;BME280;56050;55.558;-4.644;2023-07-13T02:06:18;101098.13;;;15.48;68.61
64853;BME280;56050;55.558;-4.644;2023-07-13T02:08:43;101096.22;;;15.45;68.36
64853;BME280;56050;55.558;-4.644;2023-07-13T02:11:09;101096.25;;;15.41;68.72
64853;BME280;56050;55.558;-4.644;2023-07-13T02:13:34;101096.31;;;15.38;68.35
64853;BME280;56050;55.558;-4.644;2023-07-13T02:16:00;101097.50;;;15.37;68.58
64853;BME280;56050;55.558;-4.644;2023-07-13T02:18:25;101094.81;;;15.33;68.62
64853;BME280;56050;55.558;-4.644;2023-07-13T02:20:51;101089.81;;;15.32;68.51
64853;BME280;56050;55.558;-4.644;2023-07-13T02:23:16;101090.97;;;15.30;68.27
64853;BME280;56050;55.558;-4.644;2023-07-13T02:25:42;101089.47;;;15.29;68.64
64853;BME280;56050;55.558;-4.644;2023-07-13T02:28:07;101090.63;;;15.28;68.39
64853;BME280;56050;55.558;-4.644;2023-07-13T02:30:34;101087.13;;;15.28;68.56
64853;BME280;56050;55.558;-4.644;2023-07-13T02:33:00;101086.75;;;15.29;68.42
64853;BME280;56050;55.558;-4.644;2023-07-13T02:35:25;101089.81;;;15.32;68.61
64853;BME280;56050;55.558;-4.644;2023-07-13T02:37:51;101096.78;;;15.33;68.55
64853;BME280;56050;55.558;-4.644;2023-07-13T02:40:17;101093.31;;;15.32;68.63
64853;BME280;56050;55.558;-4.644;2023-07-13T02:42:42;101083.59;;;15.31;68.66
64853;BME280;56050;55.558;-4.644;2023-07-13T02:45:09;101086.75;;;15.29;68.69
64853;BME280;56050;55.558;-4.644;2023-07-13T02:47:35;101092.56;;;15.28;68.78
64853;BME280;56050;55.558;-4.644;2023-07-13T02:50:00;101088.72;;;15.25;68.95
64853;BME280;56050;55.558;-4.644;2023-07-13T02:52:26;101085.66;;;15.23;68.83
64853;BME280;56050;55.558;-4.644;2023-07-13T02:54:52;101089.53;;;15.22;68.78
64853;BME280;56050;55.558;-4.644;2023-07-13T02:57:17;101082.16;;;15.23;68.83
64853;BME280;56050;55.558;-4.644;2023-07-13T02:59:43;101084.47;;;15.24;68.79
64853;BME280;56050;55.558;-4.644;2023-07-13T03:02:08;101089.06;;;15.27;69.12
64853;BME280;56050;55.558;-4.644;2023-07-13T03:04:36;101091.78;;;15.27;68.85
64853;BME280;56050;55.558;-4.644;2023-07-13T03:07:02;101093.75;;;15.27;68.77
64853;BME280;56050;55.558;-4.644;2023-07-13T03:09:28;101093.00;;;15.26;68.95
64853;BME280;56050;55.558;-4.644;2023-07-13T03:11:55;101093.75;;;15.27;68.86
64853;BME280;56050;55.558;-4.644;2023-07-13T03:14:21;101095.28;;;15.28;69.04
64853;BME280;56050;55.558;-4.644;2023-07-13T03:16:47;101092.53;;;15.32;69.13
64853;BME280;56050;55.558;-4.644;2023-07-13T03:19:13;101089.00;;;15.35;69.10
64853;BME280;56050;55.558;-4.644;2023-07-13T03:21:38;101084.69;;;15.37;69.17
64853;BME280;56050;55.558;-4.644;2023-07-13T03:24:04;101091.25;;;15.40;69.14
64853;BME280;56050;55.558;-4.644;2023-07-13T03:26:29;101095.13;;;15.39;68.96
64853;BME280;56050;55.558;-4.644;2023-07-13T03:28:54;101089.31;;;15.40;69.09
64853;BME280;56050;55.558;-4.644;2023-07-13T03:31:26;101095.13;;;15.39;69.06
64853;BME280;56050;55.558;-4.644;2023-07-13T03:33:55;101092.84;;;15.37;68.76
64853;BME280;56050;55.558;-4.644;2023-07-13T03:36:24;101091.34;;;15.33;69.20
64853;BME280;56050;55.558;-4.644;2023-07-13T03:38:55;101088.25;;;15.30;69.07
64853;BME280;56050;55.558;-4.644;2023-07-13T03:41:22;101093.34;;;15.28;68.79
64853;BME280;56050;55.558;-4.644;2023-07-13T03:43:48;101085.63;;;15.27;69.12
64853;BME280;56050;55.558;-4.644;2023-07-13T03:46:14;101080.59;;;15.25;69.13
64853;BME280;56050;55.558;-4.644;2023-07-13T03:48:41;101087.19;;;15.24;68.93
64853;BME280;56050;55.558;-4.644;2023-07-13T03:51:09;101082.16;;;15.23;68.84
64853;BME280;56050;55.558;-4.644;2023-07-13T03:53:38;101082.59;;;15.21;69.21
64853;BME280;56050;55.558;-4.644;2023-07-13T03:56:04;101085.31;;;15.21;69.05
64853;BME280;56050;55.558;-4.644;2023-07-13T03:58:32;101087.25;;;15.21;69.02
64853;BME280;56050;55.558;-4.644;2023-07-13T04:00:59;101088.03;;;15.21;68.98
64853;BME280;56050;55.558;-4.644;2023-07-13T04:03:25;101086.81;;;15.22;68.83
64853;BME280;56050;55.558;-4.644;2023-07-13T04:05:53;101086.81;;;15.22;69.02
64853;BME280;56050;55.558;-4.644;2023-07-13T04:08:19;101084.88;;;15.23;69.07
64853;BME280;56050;55.558;-4.644;2023-07-13T04:10:44;101089.91;;;15.24;68.87
64853;BME280;56050;55.558;-4.644;2023-07-13T04:13:09;101094.16;;;15.25;69.06
64853;BME280;56050;55.558;-4.644;2023-07-13T04:15:35;101103.41;;;15.28;69.05
64853;BME280;56050;55.558;-4.644;2023-07-13T04:18:00;101099.13;;;15.30;68.72
64853;BME280;56050;55.558;-4.644;2023-07-13T04:20:26;101103.78;;;15.30;68.84
64853;BME280;56050;55.558;-4.644;2023-07-13T04:22:52;101105.75;;;15.29;68.95
64853;BME280;56050;55.558;-4.644;2023-07-13T04:25:19;101106.50;;;15.30;68.94
64853;BME280;56050;55.558;-4.644;2023-07-13T04:27:45;101106.91;;;15.28;68.69
64853;BME280;56050;55.558;-4.644;2023-07-13T04:30:11;101106.13;;;15.28;68.83
64853;BME280;56050;55.558;-4.644;2023-07-13T04:32:36;101110.06;;;15.27;68.99
64853;BME280;56050;55.558;-4.644;2023-07-13T04:35:02;101108.06;;;15.27;68.66
64853;BME280;56050;55.558;-4.644;2023-07-13T04:37:27;101115.06;;;15.28;68.81
64853;BME280;56050;55.558;-4.644;2023-07-13T04:39:54;101112.34;;;15.28;68.81
64853;BME280;56050;55.558;-4.644;2023-07-13T04:42:19;101112.34;;;15.28;68.97
64853;BME280;56050;55.558;-4.644;2023-07-13T04:44:49;101118.94;;;15.27;68.68
64853;BME280;56050;55.558;-4.644;2023-07-13T04:47:14;101111.22;;;15.26;68.59
64853;BME280;56050;55.558;-4.644;2023-07-13T04:49:40;101106.59;;;15.23;68.44
64853;BME280;56050;55.558;-4.644;2023-07-13T04:52:06;101117.47;;;15.23;68.74
64853;BME280;56050;55.558;-4.644;2023-07-13T04:54:33;101115.16;;;15.21;68.57
64853;BME280;56050;55.558;-4.644;2023-07-13T04:56:58;101121.34;;;15.22;68.68
64853;BME280;56050;55.558;-4.644;2023-07-13T04:59:23;101121.34;;;15.22;68.76
64853;BME280;56050;55.558;-4.644;2023-07-13T05:01:49;101120.16;;;15.23;68.81
64853;BME280;56050;55.558;-4.644;2023-07-13T05:04:14;101126.38;;;15.23;68.19
64853;BME280;56050;55.558;-4.644;2023-07-13T05:06:40;101122.09;;;15.22;68.69
64853;BME280;56050;55.558;-4.644;2023-07-13T05:09:05;101131.81;;;15.23;68.71
64853;BME280;56050;55.558;-4.644;2023-07-13T05:11:32;101122.84;;;15.26;68.33
64853;BME280;56050;55.558;-4.644;2023-07-13T05:13:58;101127.06;;;15.27;68.48
64853;BME280;56050;55.558;-4.644;2023-07-13T05:16:23;101120.84;;;15.30;68.53
64853;BME280;56050;55.558;-4.644;2023-07-13T05:18:49;101129.72;;;15.35;68.40
64853;BME280;56050;55.558;-4.644;2023-07-13T05:21:14;101129.28;;;15.36;68.30
64853;BME280;56050;55.558;-4.644;2023-07-13T05:23:40;101131.22;;;15.36;68.39
64853;BME280;56050;55.558;-4.644;2023-07-13T05:26:07;101127.34;;;15.37;68.49
64853;BME280;56050;55.558;-4.644;2023-07-13T05:28:32;101123.81;;;15.40;68.54
64853;BME280;56050;55.558;-4.644;2023-07-13T05:30:58;101128.09;;;15.41;68.38
64853;BME280;56050;55.558;-4.644;2023-07-13T05:33:24;101132.75;;;15.40;68.14
64853;BME280;56050;55.558;-4.644;2023-07-13T05:35:49;101138.56;;;15.39;68.00
64853;BME280;56050;55.558;-4.644;2023-07-13T05:38:15;101138.56;;;15.39;68.17
64853;BME280;56050;55.558;-4.644;2023-07-13T05:40:44;101139.34;;;15.39;68.38
64853;BME280;56050;55.558;-4.644;2023-07-13T05:43:11;101144.72;;;15.43;68.04
64853;BME280;56050;55.558;-4.644;2023-07-13T05:45:37;101142.75;;;15.47;67.96
64853;BME280;56050;55.558;-4.644;2023-07-13T05:48:02;101140.78;;;15.51;68.05
64853;BME280;56050;55.558;-4.644;2023-07-13T05:50:28;101144.97;;;15.55;68.25
64853;BME280;56050;55.558;-4.644;2023-07-13T05:52:53;101148.81;;;15.58;68.07
64853;BME280;56050;55.558;-4.644;2023-07-13T05:55:19;101148.41;;;15.59;68.22
64853;BME280;56050;55.558;-4.644;2023-07-13T05:57:44;101151.13;;;15.59;68.13
64853;BME280;56050;55.558;-4.644;2023-07-13T06:00:10;101155.00;;;15.58;67.70
64853;BME280;56050;55.558;-4.644;2023-07-13T06:02:36;101156.94;;;15.58;68.11
64853;BME280;56050;55.558;-4.644;2023-07-13T06:05:02;101162.75;;;15.60;67.92
64853;BME280;56050;55.558;-4.644;2023-07-13T06:07:27;101158.47;;;15.62;68.03
64853;BME280;56050;55.558;-4.644;2023-07-13T06:09:53;101159.22;;;15.63;67.84
64853;BME280;56050;55.558;-4.644;2023-07-13T06:12:18;101163.47;;;15.64;67.79
64853;BME280;56050;55.558;-4.644;2023-07-13T06:14:43;101161.47;;;15.68;67.78
64853;BME280;56050;55.558;-4.644;2023-07-13T06:17:09;101161.78;;;15.73;67.97
64853;BME280;56050;55.558;-4.644;2023-07-13T06:19:34;101171.03;;;15.79;67.96
64853;BME280;56050;55.558;-4.644;2023-07-13T06:22:00;101171.34;;;15.85;67.94
64853;BME280;56050;55.558;-4.644;2023-07-13T06:24:26;101171.22;;;15.92;67.85
64853;BME280;56050;55.558;-4.644;2023-07-13T06:26:51;101181.63;;;15.97;67.60
64853;BME280;56050;55.558;-4.644;2023-07-13T06:29:16;101175.72;;;16.02;67.71
64853;BME280;56050;55.558;-4.644;2023-07-13T06:31:42;101175.63;;;16.09;67.58
64853;BME280;56050;55.558;-4.644;2023-07-13T06:34:07;101177.50;;;16.12;67.66
64853;BME280;56050;55.558;-4.644;2023-07-13T06:36:33;101177.03;;;16.17;67.59
64853;BME280;56050;55.558;-4.644;2023-07-13T06:38:59;101178.09;;;16.23;67.50
64853;BME280;56050;55.558;-4.644;2023-07-13T06:41:24;101186.97;;;16.27;67.33
64853;BME280;56050;55.558;-4.644;2023-07-13T06:43:52;101179.53;;;16.31;67.48
64853;BME280;56050;55.558;-4.644;2023-07-13T06:46:21;101180.16;;;16.39;67.30
64853;BME280;56050;55.558;-4.644;2023-07-13T06:48:46;101182.34;;;16.48;67.15
64853;BME280;56050;55.558;-4.644;2023-07-13T06:51:11;101186.50;;;16.56;66.90
64853;BME280;56050;55.558;-4.644;2023-07-13T06:53:37;101189.09;;;16.63;67.16
64853;BME280;56050;55.558;-4.644;2023-07-13T06:56:02;101196.81;;;16.68;67.01
64853;BME280;56050;55.558;-4.644;2023-07-13T06:58:28;101193.47;;;16.80;66.92
64853;BME280;56050;55.558;-4.644;2023-07-13T07:00:54;101195.56;;;16.92;66.60
64853;BME280;56050;55.558;-4.644;2023-07-13T07:03:19;101198.09;;;17.02;66.65
64853;BME280;56050;55.558;-4.644;2023-07-13T07:05:45;101197.88;;;17.13;66.30
64853;BME280;56050;55.558;-4.644;2023-07-13T07:08:11;101194.16;;;17.23;66.20
64853;BME280;56050;55.558;-4.644;2023-07-13T07:10:36;101205.28;;;17.32;66.21
64853;BME280;56050;55.558;-4.644;2023-07-13T07:13:02;101195.09;;;17.36;65.87
64853;BME280;56050;55.558;-4.644;2023-07-13T07:15:28;101205.41;;;17.45;65.90
64853;BME280;56050;55.558;-4.644;2023-07-13T07:17:53;101200.59;;;17.52;65.79
64853;BME280;56050;55.558;-4.644;2023-07-13T07:20:19;101201.22;;;17.60;65.65
64853;BME280;56050;55.558;-4.644;2023-07-13T07:22:45;101210.44;;;17.66;65.59
64853;BME280;56050;55.558;-4.644;2023-07-13T07:25:11;101202.53;;;17.72;65.06
64853;BME280;56050;55.558;-4.644;2023-07-13T07:27:37;101199.81;;;17.72;64.98
64853;BME280;56050;55.558;-4.644;2023-07-13T07:30:02;101203.63;;;17.74;64.83
64853;BME280;56050;55.558;-4.644;2023-07-13T07:32:29;101209.44;;;17.76;65.01
64853;BME280;56050;55.558;-4.644;2023-07-13T07:34:56;101205.09;;;17.79;64.77
64853;BME280;56050;55.558;-4.644;2023-07-13T07:37:22;101199.56;;;17.82;64.68
64853;BME280;56050;55.558;-4.644;2023-07-13T07:39:47;101205.63;;;17.90;64.71
64853;BME280;56050;55.558;-4.644;2023-07-13T07:42:13;101208.53;;;17.99;64.62
64853;BME280;56050;55.558;-4.644;2023-07-13T07:44:40;101198.31;;;18.03;64.45
64853;BME280;56050;55.558;-4.644;2023-07-13T07:47:06;101204.19;;;18.01;64.18
64853;BME280;56050;55.558;-4.644;2023-07-13T07:49:31;101199.31;;;18.09;64.35
64853;BME280;56050;55.558;-4.644;2023-07-13T07:51:57;101206.31;;;18.26;64.35
64853;BME280;56050;55.558;-4.644;2023-07-13T07:54:22;101203.50;;;18.46;64.52
64853;BME280;56050;55.558;-4.644;2023-07-13T07:56:48;101208.09;;;18.65;64.31
64853;BME280;56050;55.558;-4.644;2023-07-13T07:59:13;101212.44;;;18.78;63.95
64853;BME280;56050;55.558;-4.644;2023-07-13T08:01:39;101213.03;;;18.86;63.38
64853;BME280;56050;55.558;-4.644;2023-07-13T08:04:04;101218.84;;;19.01;63.65
64853;BME280;56050;55.558;-4.644;2023-07-13T08:06:32;101220.44;;;19.14;63.21
64853;BME280;56050;55.558;-4.644;2023-07-13T08:08:59;101229.53;;;19.24;63.31
64853;BME280;56050;55.558;-4.644;2023-07-13T08:11:25;101222.34;;;19.30;62.91
64853;BME280;56050;55.558;-4.644;2023-07-13T08:13:50;101226.06;;;19.36;62.63
64853;BME280;56050;55.558;-4.644;2023-07-13T08:16:16;101226.75;;;19.40;62.80
64853;BME280;56050;55.558;-4.644;2023-07-13T08:18:41;101231.38;;;19.43;62.57
64853;BME280;56050;55.558;-4.644;2023-07-13T08:21:08;101223.94;;;19.44;62.51
64853;BME280;56050;55.558;-4.644;2023-07-13T08:23:35;101218.88;;;19.42;61.92
64853;BME280;56050;55.558;-4.644;2023-07-13T08:26:01;101219.66;;;19.43;62.31
64853;BME280;56050;55.558;-4.644;2023-07-13T08:28:27;101208.31;;;19.44;62.20
64853;BME280;56050;55.558;-4.644;2023-07-13T08:30:53;101216.94;;;19.43;62.05
64853;BME280;56050;55.558;-4.644;2023-07-13T08:33:19;101215.50;;;19.38;61.99
64853;BME280;56050;55.558;-4.644;2023-07-13T08:35:46;101213.94;;;19.37;62.00
64853;BME280;56050;55.558;-4.644;2023-07-13T08:38:12;101216.59;;;19.41;62.06
64853;BME280;56050;55.558;-4.644;2023-07-13T08:40:39;101217.59;;;19.47;61.71
64853;BME280;56050;55.558;-4.644;2023-07-13T08:43:04;101219.13;;;19.48;61.79
64853;BME280;56050;55.558;-4.644;2023-07-13T08:45:53;101216.38;;;19.48;61.56
64853;BME280;56050;55.558;-4.644;2023-07-13T08:48:36;101225.81;;;19.47;61.52
64853;BME280;56050;55.558;-4.644;2023-07-13T08:54:01;101221.28;;;19.40;61.68
64853;BME280;56050;55.558;-4.644;2023-07-13T08:56:29;101226.81;;;19.36;61.41
64853;BME280;56050;55.558;-4.644;2023-07-13T08:59:03;101227.91;;;19.26;61.50
64853;BME280;56050;55.558;-4.644;2023-07-13T09:04:22;101229.69;;;19.04;61.33
64853;BME280;56050;55.558;-4.644;2023-07-13T09:12:09;101225.16;;;18.69;61.04
64853;BME280;56050;55.558;-4.644;2023-07-13T09:14:50;101225.84;;;18.57;61.60
64853;BME280;56050;55.558;-4.644;2023-07-13T09:17:59;101224.06;;;18.50;61.71
64853;BME280;56050;55.558;-4.644;2023-07-13T09:22:40;101225.34;;;18.30;61.18
64853;BME280;56050;55.558;-4.644;2023-07-13T09:27:53;101238.19;;;18.13;61.51
64853;BME280;56050;55.558;-4.644;2023-07-13T09:30:30;101235.28;;;18.04;61.78
64853;BME280;56050;55.558;-4.644;2023-07-13T09:32:58;101238.13;;;18.00;62.07
64853;BME280;56050;55.558;-4.644;2023-07-13T09:35:26;101233.50;;;17.97;62.11
64853;BME280;56050;55.558;-4.644;2023-07-13T09:37:58;101239.03;;;17.94;61.94
64853;BME280;56050;55.558;-4.644;2023-07-13T09:40:30;101242.94;;;17.93;62.16
64853;BME280;56050;55.558;-4.644;2023-07-13T09:43:02;101248.56;;;17.86;62.29
64853;BME280;56050;55.558;-4.644;2023-07-13T09:45:32;101252.28;;;17.76;62.71
64853;BME280;56050;55.558;-4.644;2023-07-13T09:48:12;101247.88;;;17.62;62.63
64853;BME280;56050;55.558;-4.644;2023-07-13T09:50:39;101244.16;;;17.52;62.80
64853;BME280;56050;55.558;-4.644;2023-07-13T09:53:17;101252.06;;;17.47;63.19
64853;BME280;56050;55.558;-4.644;2023-07-13T09:55:45;101249.06;;;17.41;63.47
64853;BME280;56050;55.558;-4.644;2023-07-13T09:58:20;101259.19;;;17.41;63.28
64853;BME280;56050;55.558;-4.644;2023-07-13T10:01:01;101249.91;;;17.38;63.47
64853;BME280;56050;55.558;-4.644;2023-07-13T10:03:35;101256.13;;;17.39;63.52
64853;BME280;56050;55.558;-4.644;2023-07-13T10:06:17;101255.78;;;17.37;63.46
64853;BME280;56050;55.558;-4.644;2023-07-13T10:08:45;101262.41;;;17.36;63.48
64853;BME280;56050;55.558;-4.644;2023-07-13T10:11:29;101252.69;;;17.35;63.86
64853;BME280;56050;55.558;-4.644;2023-07-13T10:13:58;101265.91;;;17.36;63.58
64853;BME280;56050;55.558;-4.644;2023-07-13T10:16:27;101256.91;;;17.39;63.64
64853;BME280;56050;55.558;-4.644;2023-07-13T10:19:12;101264.56;;;17.44;63.46
64853;BME280;56050;55.558;-4.644;2023-07-13T10:21:50;101260.66;;;17.45;63.49
64853;BME280;56050;55.558;-4.644;2023-07-13T10:24:22;101262.25;;;17.43;63.80
64853;BME280;56050;55.558;-4.644;2023-07-13T10:32:29;101266.19;;;17.42;63.77
64853;BME280;56050;55.558;-4.644;2023-07-13T10:34:54;101256.41;;;17.44;63.88
64853;BME280;56050;55.558;-4.644;2023-07-13T10:37:53;101265.19;;;17.52;63.83
64853;BME280;56050;55.558;-4.644;2023-07-13T10:40:37;101265.44;;;17.61;63.65
64853;BME280;56050;55.558;-4.644;2023-07-13T10:43:10;101267.66;;;17.66;63.45
64853;BME280;56050;55.558;-4.644;2023-07-13T10:45:38;101266.47;;;17.67;63.51
64853;BME280;56050;55.558;-4.644;2023-07-13T10:48:06;101264.88;;;17.70;63.31
64853;BME280;56050;55.558;-4.644;2023-07-13T10:50:37;101275.94;;;17.79;63.28
64853;BME280;56050;55.558;-4.644;2023-07-13T10:53:35;101277.75;;;17.85;63.24
64853;BME280;56050;55.558;-4.644;2023-07-13T10:56:02;101270.28;;;17.89;62.96
64853;BME280;56050;55.558;-4.644;2023-07-13T10:58:37;101270.69;;;17.88;63.26
64853;BME280;56050;55.558;-4.644;2023-07-13T11:03:49;101280.56;;;17.82;63.23
64853;BME280;56050;55.558;-4.644;2023-07-13T11:21:28;101280.72;;;17.75;63.78
64853;BME280;56050;55.558;-4.644;2023-07-13T11:26:50;101282.66;;;17.94;63.68
64853;BME280;56050;55.558;-4.644;2023-07-13T11:31:59;101278.31;;;18.12;63.32
64853;BME280;56050;55.558;-4.644;2023-07-13T11:34:36;101277.06;;;18.17;63.06
64853;BME280;56050;55.558;-4.644;2023-07-13T11:37:03;101275.28;;;18.27;63.18
64853;BME280;56050;55.558;-4.644;2023-07-13T11:39:35;101280.16;;;18.35;63.00
64853;BME280;56050;55.558;-4.644;2023-07-13T11:42:05;101270.16;;;18.45;62.81
64853;BME280;56050;55.558;-4.644;2023-07-13T11:44:34;101273.19;;;18.50;62.83
64853;BME280;56050;55.558;-4.644;2023-07-13T11:47:11;101268.09;;;18.52;62.66
64853;BME280;56050;55.558;-4.644;2023-07-13T11:49:45;101271.91;;;18.55;62.29
64853;BME280;56050;55.558;-4.644;2023-07-13T11:52:17;101269.44;;;18.60;62.21
64853;BME280;56050;55.558;-4.644;2023-07-13T11:59:51;101273.34;;;18.92;62.16
64853;BME280;56050;55.558;-4.644;2023-07-13T12:04:54;101266.28;;;19.07;61.78
64853;BME280;56050;55.558;-4.644;2023-07-13T12:07:19;101269.25;;;19.12;61.89
64853;BME280;56050;55.558;-4.644;2023-07-13T12:09:45;101266.84;;;19.14;61.64
64853;BME280;56050;55.558;-4.644;2023-07-13T12:12:20;101264.03;;;19.18;61.75
64853;BME280;56050;55.558;-4.644;2023-07-13T12:14:51;101275.28;;;19.20;61.61
64853;BME280;56050;55.558;-4.644;2023-07-13T12:17:22;101268.63;;;19.21;61.51
64853;BME280;56050;55.558;-4.644;2023-07-13T12:19:50;101273.34;;;19.20;61.77
64853;BME280;56050;55.558;-4.644;2023-07-13T12:22:18;101269.75;;;19.23;61.73
64853;BME280;56050;55.558;-4.644;2023-07-13T12:24:46;101275.78;;;19.31;61.88
64853;BME280;56050;55.558;-4.644;2023-07-13T12:27:22;101265.47;;;19.39;61.54
64853;BME280;56050;55.558;-4.644;2023-07-13T12:32:19;101280.69;;;19.52;61.70
64853;BME280;56050;55.558;-4.644;2023-07-13T12:34:55;101272.03;;;19.54;61.29
64853;BME280;56050;55.558;-4.644;2023-07-13T12:37:22;101275.88;;;19.56;61.13
64853;BME280;56050;55.558;-4.644;2023-07-13T12:39:48;101272.72;;;19.58;60.56
64853;BME280;56050;55.558;-4.644;2023-07-13T12:42:21;101283.75;;;19.54;60.88
64853;BME280;56050;55.558;-4.644;2023-07-13T12:44:50;101284.16;;;19.53;60.62
64853;BME280;56050;55.558;-4.644;2023-07-13T12:47:16;101277.19;;;19.52;60.76
64853;BME280;56050;55.558;-4.644;2023-07-13T12:49:48;101277.97;;;19.52;60.78
64853;BME280;56050;55.558;-4.644;2023-07-13T12:52:16;101275.56;;;19.54;60.70
64853;BME280;56050;55.558;-4.644;2023-07-13T12:54:42;101280.56;;;19.56;60.84
64853;BME280;56050;55.558;-4.644;2023-07-13T12:57:17;101283.22;;;19.59;60.81
64853;BME280;56050;55.558;-4.644;2023-07-13T12:59:43;101273.47;;;19.58;60.43
64853;BME280;56050;55.558;-4.644;2023-07-13T13:02:35;101281.34;;;19.56;60.93
64853;BME280;56050;55.558;-4.644;2023-07-13T13:05:02;101273.81;;;19.60;60.70
64853;BME280;56050;55.558;-4.644;2023-07-13T13:07:29;101271.72;;;19.64;60.71
64853;BME280;56050;55.558;-4.644;2023-07-13T13:09:55;101270.88;;;19.67;60.74
64853;BME280;56050;55.558;-4.644;2023-07-13T13:12:22;101275.47;;;19.70;60.56
64853;BME280;56050;55.558;-4.644;2023-07-13T13:14:47;101280.84;;;19.74;60.35
64853;BME280;56050;55.558;-4.644;2023-07-13T13:17:21;101279.19;;;19.76;60.36
64853;BME280;56050;55.558;-4.644;2023-07-13T13:19:50;101265.84;;;19.78;59.95
64853;BME280;56050;55.558;-4.644;2023-07-13T13:22:18;101275.59;;;19.79;59.86
64853;BME280;56050;55.558;-4.644;2023-07-13T13:24:44;101288.81;;;19.81;59.91
64853;BME280;56050;55.558;-4.644;2023-07-13T13:27:15;101283.69;;;19.83;59.81
64853;BME280;56050;55.558;-4.644;2023-07-13T13:29:43;101281.53;;;19.90;59.90
64853;BME280;56050;55.558;-4.644;2023-07-13T13:32:12;101281.84;;;19.92;59.98
64853;BME280;56050;55.558;-4.644;2023-07-13T13:34:38;101284.13;;;19.94;59.70
64853;BME280;56050;55.558;-4.644;2023-07-13T13:37:21;101286.63;;;19.88;59.58
64853;BME280;56050;55.558;-4.644;2023-07-13T13:39:48;101283.69;;;19.83;59.53
64853;BME280;56050;55.558;-4.644;2023-07-13T13:42:14;101278.22;;;19.83;59.64